Time;durP1;ratioP1;P1;durP2;ratioP2;P2;SDS_P1;SDS_P2;PMS_P1;PMS_P2;Temp;Humidity;BMP_temperature;BMP_pressure;BME280_temperature;BME280_humidity;BME280_pressure;Samples;Min_cycle;Max_cycle;Signal;HPM_P1;HPM_P2
2023/12/27 00:00:42;;;;;;;;;10.00;10.00;;;;;;;;5083355;27;45153;-82
2023/12/27 00:03:07;;;;;;;;;11.67;10.00;;;;;;;;5085353;28;45378;-83
2023/12/27 00:05:32;;;;;;;;;11.33;11.33;;;;;;;;5080491;28;45216;-80
2023/12/27 00:07:57;;;;;;;;;9.67;8.67;;;;;;;;5080834;28;45352;-83
2023/12/27 00:10:22;;;;;;;;;11.67;11.67;;;;;;;;5084254;28;45221;-82
2023/12/27 00:12:48;;;;;;;;;9.67;8.00;;;;;;;;5061342;28;45327;-81
2023/12/27 00:15:13;;;;;;;;;9.33;8.67;;;;;;;;5062085;28;46210;-78
2023/12/27 00:17:38;;;;;;;;;12.00;10.00;;;;;;;;5079611;28;46373;-80
2023/12/27 00:20:04;;;;;;;;;13.00;10.67;;;;;;;;5081026;28;45212;-80
2023/12/27 00:22:29;;;;;;;;;12.00;10.67;;;;;;;;5066505;28;45458;-82
2023/12/27 00:24:54;;;;;;;;;10.00;10.00;;;;;;;;5077974;28;46039;-81
2023/12/27 00:27:19;;;;;;;;;10.67;10.00;;;;;;;;5081211;28;46228;-80
2023/12/27 00:29:45;;;;;;;;;12.33;10.00;;;;;;;;5081441;28;45366;-80
2023/12/27 00:32:11;;;;;;;;;11.00;10.00;;;;;;;;5081249;28;45384;-81
2023/12/27 00:34:36;;;;;;;;;9.00;8.67;;;;;;;;5060933;28;46935;-81
2023/12/27 00:37:02;;;;;;;;;12.00;12.00;;;;;;;;5060667;28;46221;-81
2023/12/27 00:39:27;;;;;;;;;10.67;10.67;;;;;;;;5081425;28;45797;-82
2023/12/27 00:41:52;;;;;;;;;7.67;7.67;;;;;;;;5080450;28;45942;-81
2023/12/27 00:44:18;;;;;;;;;10.67;10.67;;;;;;;;5079746;28;45351;-82
2023/12/27 00:46:43;;;;;;;;;8.33;8.33;;;;;;;;5080732;28;46194;-80
2023/12/27 00:49:08;;;;;;;;;9.67;7.67;;;;;;;;5062548;28;45430;-81
2023/12/27 00:51:33;;;;;;;;;9.67;8.67;;;;;;;;5083732;28;45375;-81
2023/12/27 00:53:59;;;;;;;;;10.00;8.67;;;;;;;;5084003;28;45307;-80
2023/12/27 00:56:24;;;;;;;;;8.67;8.67;;;;;;;;5084700;28;45387;-81
2023/12/27 00:58:50;;;;;;;;;8.00;8.00;;;;;;;;5088278;28;45248;-82
2023/12/27 01:01:15;;;;;;;;;14.00;11.67;;;;;;;;5088888;27;45230;-82
2023/12/27 01:03:40;;;;;;;;;8.67;8.67;;;;;;;;5090977;28;45345;-82
2023/12/27 01:06:06;;;;;;;;;11.33;10.00;;;;;;;;5082720;27;45261;-80
2023/12/27 01:08:31;;;;;;;;;11.00;9.67;;;;;;;;5082389;27;45357;-80
2023/12/27 01:10:56;;;;;;;;;7.00;7.00;;;;;;;;5082842;28;45381;-80
2023/12/27 01:13:22;;;;;;;;;9.00;8.67;;;;;;;;5082120;28;45286;-80
2023/12/27 01:15:47;;;;;;;;;9.67;9.67;;;;;;;;5081765;28;45321;-80
2023/12/27 01:18:12;;;;;;;;;9.00;7.00;;;;;;;;5082157;28;45227;-80
2023/12/27 01:20:37;;;;;;;;;10.33;9.00;;;;;;;;5080789;28;45470;-80
2023/12/27 01:23:02;;;;;;;;;7.67;7.67;;;;;;;;5081919;28;45148;-80
2023/12/27 01:25:28;;;;;;;;;10.00;8.33;;;;;;;;5081817;28;45745;-80
2023/12/27 01:27:53;;;;;;;;;14.00;10.67;;;;;;;;5081875;28;45226;-80
2023/12/27 01:30:18;;;;;;;;;10.00;10.00;;;;;;;;5097942;27;45580;-80
2023/12/27 01:32:43;;;;;;;;;10.00;10.00;;;;;;;;5081996;28;45321;-80
2023/12/27 01:35:08;;;;;;;;;8.33;7.00;;;;;;;;5081930;28;45289;-80
2023/12/27 01:37:33;;;;;;;;;10.33;9.00;;;;;;;;5082198;28;45192;-80
2023/12/27 01:39:59;;;;;;;;;7.00;6.00;;;;;;;;5082150;28;45588;-80
2023/12/27 01:42:24;;;;;;;;;7.00;7.00;;;;;;;;5100241;27;45220;-80
2023/12/27 01:44:49;;;;;;;;;6.67;6.00;;;;;;;;5100776;27;48083;-80
2023/12/27 01:47:15;;;;;;;;;8.67;8.00;;;;;;;;5099880;27;45721;-79
2023/12/27 01:49:40;;;;;;;;;7.00;7.00;;;;;;;;5101909;27;45511;-80
2023/12/27 01:52:06;;;;;;;;;9.00;9.00;;;;;;;;5093483;27;45311;-80
2023/12/27 01:54:31;;;;;;;;;8.00;8.00;;;;;;;;5081954;28;45373;-79
2023/12/27 01:56:56;;;;;;;;;9.00;8.33;;;;;;;;5081459;28;45491;-79
2023/12/27 01:59:22;;;;;;;;;8.67;8.33;;;;;;;;5097396;27;45808;-80
2023/12/27 02:01:47;;;;;;;;;11.67;8.67;;;;;;;;5080444;27;45306;-79
2023/12/27 02:04:12;;;;;;;;;11.33;11.33;;;;;;;;5082752;28;45845;-81
2023/12/27 02:06:37;;;;;;;;;10.00;10.00;;;;;;;;5080735;28;45462;-80
2023/12/27 02:09:03;;;;;;;;;10.33;9.33;;;;;;;;5081862;28;45268;-79
2023/12/27 02:11:28;;;;;;;;;7.67;7.67;;;;;;;;5081316;28;45391;-80
2023/12/27 02:13:53;;;;;;;;;7.00;7.00;;;;;;;;5078909;28;48102;-79
2023/12/27 02:16:21;;;;;;;;;8.67;8.67;;;;;;;;5080147;28;45360;-79
2023/12/27 02:18:47;;;;;;;;;9.67;9.67;;;;;;;;5079832;28;45459;-78
2023/12/27 02:21:12;;;;;;;;;9.33;8.67;;;;;;;;5080972;28;45260;-79
2023/12/27 02:23:37;;;;;;;;;10.33;9.00;;;;;;;;5080857;28;45227;-79
2023/12/27 02:26:04;;;;;;;;;11.00;9.00;;;;;;;;5079382;28;45238;-79
2023/12/27 02:28:29;;;;;;;;;7.67;7.67;;;;;;;;5062695;28;45235;-79
2023/12/27 02:30:54;;;;;;;;;8.67;8.67;;;;;;;;5062254;28;46083;-79
2023/12/27 02:33:20;;;;;;;;;8.00;8.00;;;;;;;;5062512;28;48074;-79
2023/12/27 02:35:45;;;;;;;;;8.33;8.00;;;;;;;;5081002;28;45331;-79
2023/12/27 02:38:10;;;;;;;;;7.33;7.33;;;;;;;;5081062;28;45307;-80
2023/12/27 02:40:35;;;;;;;;;10.33;10.00;;;;;;;;5062346;28;45750;-80
2023/12/27 02:43:01;;;;;;;;;11.00;10.33;;;;;;;;5080620;28;46337;-79
2023/12/27 02:45:26;;;;;;;;;7.00;7.00;;;;;;;;5081678;28;45279;-80
2023/12/27 02:47:51;;;;;;;;;1.00;1.00;;;;;;;;5080778;28;45327;-79
2023/12/27 02:50:16;;;;;;;;;9.00;9.00;;;;;;;;5080517;28;45423;-79
2023/12/27 02:52:41;;;;;;;;;7.33;7.33;;;;;;;;5080080;28;45670;-79
2023/12/27 02:55:06;;;;;;;;;9.33;8.00;;;;;;;;5081135;28;45326;-80
2023/12/27 02:57:32;;;;;;;;;7.00;6.67;;;;;;;;5080327;28;45369;-80
2023/12/27 02:59:57;;;;;;;;;9.00;8.00;;;;;;;;5096237;27;46134;-79
2023/12/27 03:02:22;;;;;;;;;7.00;6.00;;;;;;;;5096046;27;48075;-78
2023/12/27 03:04:47;;;;;;;;;9.33;6.33;;;;;;;;5080725;28;45382;-79
2023/12/27 03:07:12;;;;;;;;;9.00;7.00;;;;;;;;5081170;28;45509;-79
2023/12/27 03:09:38;;;;;;;;;7.00;7.00;;;;;;;;5080423;28;45306;-79
2023/12/27 03:12:03;;;;;;;;;8.00;8.00;;;;;;;;5079972;28;46410;-79
2023/12/27 03:14:28;;;;;;;;;6.33;6.33;;;;;;;;5080058;28;45385;-79
2023/12/27 03:16:54;;;;;;;;;7.00;7.00;;;;;;;;5098507;27;45410;-81
2023/12/27 03:19:19;;;;;;;;;7.33;7.00;;;;;;;;5096225;27;47450;-80
2023/12/27 03:21:44;;;;;;;;;6.33;6.33;;;;;;;;5086227;28;45423;-81
2023/12/27 03:24:09;;;;;;;;;7.00;7.00;;;;;;;;5079183;28;45288;-79
2023/12/27 03:26:35;;;;;;;;;7.00;7.00;;;;;;;;5081061;28;45329;-79
2023/12/27 03:29:00;;;;;;;;;9.33;7.00;;;;;;;;5081050;27;45220;-79
2023/12/27 03:31:28;;;;;;;;;7.67;7.67;;;;;;;;5087959;28;45149;-80
2023/12/27 03:33:57;;;;;;;;;7.67;6.33;;;;;;;;5078597;28;45247;-79
2023/12/27 03:36:22;;;;;;;;;7.00;7.00;;;;;;;;5081425;27;45312;-80
2023/12/27 03:38:48;;;;;;;;;6.67;6.67;;;;;;;;5095499;27;46679;-79
2023/12/27 03:41:13;;;;;;;;;6.00;6.00;;;;;;;;5080107;28;46029;-79
2023/12/27 03:43:38;;;;;;;;;6.33;6.33;;;;;;;;5078389;28;46071;-80
2023/12/27 03:46:03;;;;;;;;;5.33;5.33;;;;;;;;5078954;28;45338;-79
2023/12/27 03:48:31;;;;;;;;;7.00;7.00;;;;;;;;5080537;28;45259;-80
2023/12/27 03:50:56;;;;;;;;;9.00;9.00;;;;;;;;5080593;27;45266;-79
2023/12/27 03:53:21;;;;;;;;;6.33;5.33;;;;;;;;5088268;28;45221;-82
2023/12/27 03:55:46;;;;;;;;;5.33;5.33;;;;;;;;5080837;27;45144;-79
2023/12/27 03:58:11;;;;;;;;;7.33;7.33;;;;;;;;5085472;27;45200;-79
2023/12/27 04:00:36;;;;;;;;;6.00;6.00;;;;;;;;5079926;28;45619;-79
2023/12/27 04:03:02;;;;;;;;;8.00;7.00;;;;;;;;5090676;28;45228;-81
2023/12/27 04:05:27;;;;;;;;;6.00;6.00;;;;;;;;5062601;28;45248;-79
2023/12/27 04:07:52;;;;;;;;;8.00;8.00;;;;;;;;5080481;28;45371;-79
2023/12/27 04:10:17;;;;;;;;;10.67;8.67;;;;;;;;5079766;28;45338;-80
2023/12/27 04:12:42;;;;;;;;;8.33;7.00;;;;;;;;5080197;28;45329;-79
2023/12/27 04:15:08;;;;;;;;;6.67;6.00;;;;;;;;5079699;28;45465;-79
2023/12/27 04:17:33;;;;;;;;;7.33;7.00;;;;;;;;5080343;28;45377;-79
2023/12/27 04:19:59;;;;;;;;;6.00;6.00;;;;;;;;5080079;28;46396;-79
2023/12/27 04:22:24;;;;;;;;;8.67;8.00;;;;;;;;5080431;28;45262;-79
2023/12/27 04:24:49;;;;;;;;;6.00;6.00;;;;;;;;5082460;28;45181;-79
2023/12/27 04:27:14;;;;;;;;;7.00;6.33;;;;;;;;5083680;28;45206;-79
2023/12/27 04:29:39;;;;;;;;;7.67;7.00;;;;;;;;5087577;28;47481;-79
2023/12/27 04:32:05;;;;;;;;;4.67;4.67;;;;;;;;5083670;28;45271;-79
2023/12/27 04:34:30;;;;;;;;;6.67;6.67;;;;;;;;5083776;28;45349;-79
2023/12/27 04:36:55;;;;;;;;;6.00;5.00;;;;;;;;5081879;28;45820;-80
2023/12/27 04:39:20;;;;;;;;;8.33;8.33;;;;;;;;5083502;28;45429;-79
2023/12/27 04:41:45;;;;;;;;;9.00;8.67;;;;;;;;5083416;28;45293;-79
2023/12/27 04:44:11;;;;;;;;;6.00;5.67;;;;;;;;5064856;28;45393;-78
2023/12/27 04:46:36;;;;;;;;;8.67;7.00;;;;;;;;5082957;28;45342;-79
2023/12/27 04:49:03;;;;;;;;;4.00;4.00;;;;;;;;5083069;28;45497;-79
2023/12/27 04:51:29;;;;;;;;;6.33;6.33;;;;;;;;5083345;28;45423;-79
2023/12/27 04:53:54;;;;;;;;;6.00;6.00;;;;;;;;5083913;28;45382;-79
2023/12/27 04:56:19;;;;;;;;;5.33;5.33;;;;;;;;5082609;28;45549;-79
2023/12/27 04:58:44;;;;;;;;;6.00;5.33;;;;;;;;5080416;28;48277;-79
2023/12/27 05:01:10;;;;;;;;;5.00;5.00;;;;;;;;5082818;27;45217;-79
2023/12/27 05:03:37;;;;;;;;;6.33;5.67;;;;;;;;5083550;28;45548;-79
2023/12/27 05:06:04;;;;;;;;;6.67;6.00;;;;;;;;5083993;28;45480;-79
2023/12/27 05:08:30;;;;;;;;;7.00;6.00;;;;;;;;5083282;27;45361;-79
2023/12/27 05:10:55;;;;;;;;;6.33;6.33;;;;;;;;5098402;27;45314;-79
2023/12/27 05:13:20;;;;;;;;;5.67;5.33;;;;;;;;5080850;28;45312;-79
2023/12/27 05:15:46;;;;;;;;;5.67;5.67;;;;;;;;5082422;28;45511;-79
2023/12/27 05:18:11;;;;;;;;;6.00;5.00;;;;;;;;5081146;28;48529;-79
2023/12/27 05:20:37;;;;;;;;;8.33;7.00;;;;;;;;5087176;28;45301;-81
2023/12/27 05:23:02;;;;;;;;;6.00;6.00;;;;;;;;5086546;28;45339;-80
2023/12/27 05:25:27;;;;;;;;;7.00;7.00;;;;;;;;5088844;28;47724;-81
2023/12/27 05:27:52;;;;;;;;;8.67;7.00;;;;;;;;5081967;28;45360;-79
2023/12/27 05:30:17;;;;;;;;;5.00;5.00;;;;;;;;5082664;28;45317;-79
2023/12/27 05:32:42;;;;;;;;;4.33;4.33;;;;;;;;5087739;28;45379;-80
2023/12/27 05:35:09;;;;;;;;;5.67;5.33;;;;;;;;5082563;28;45661;-79
2023/12/27 05:37:34;;;;;;;;;5.00;5.00;;;;;;;;5082045;27;46229;-79
2023/12/27 05:40:00;;;;;;;;;5.00;4.00;;;;;;;;5082134;28;45373;-79
2023/12/27 05:42:25;;;;;;;;;6.33;5.67;;;;;;;;5080442;28;45252;-79
2023/12/27 05:44:50;;;;;;;;;6.00;6.00;;;;;;;;5081514;28;45219;-79
2023/12/27 05:47:15;;;;;;;;;6.33;6.33;;;;;;;;5081578;28;46294;-79
2023/12/27 05:49:40;;;;;;;;;7.00;7.00;;;;;;;;5082373;28;45202;-80
2023/12/27 05:52:07;;;;;;;;;5.00;5.00;;;;;;;;5082797;28;45522;-79
2023/12/27 05:54:32;;;;;;;;;5.67;5.33;;;;;;;;5080148;28;45977;-79
2023/12/27 05:56:57;;;;;;;;;6.67;6.33;;;;;;;;5079124;28;46208;-79
2023/12/27 05:59:22;;;;;;;;;5.67;5.00;;;;;;;;5082190;28;45323;-79
2023/12/27 06:01:48;;;;;;;;;6.00;6.00;;;;;;;;5064045;28;45485;-79
2023/12/27 06:04:17;;;;;;;;;4.00;4.00;;;;;;;;5081853;28;45524;-79
2023/12/27 06:06:43;;;;;;;;;6.00;6.00;;;;;;;;5081441;28;45424;-79
2023/12/27 06:09:09;;;;;;;;;6.67;6.33;;;;;;;;5081749;28;45344;-79
2023/12/27 06:11:34;;;;;;;;;5.33;5.33;;;;;;;;5082397;28;45421;-79
2023/12/27 06:13:59;;;;;;;;;5.00;5.00;;;;;;;;5082378;28;45600;-79
2023/12/27 06:16:24;;;;;;;;;4.33;4.33;;;;;;;;5082843;28;45973;-79
2023/12/27 06:18:54;;;;;;;;;4.33;3.67;;;;;;;;5063648;28;45407;-79
2023/12/27 06:21:19;;;;;;;;;5.00;5.00;;;;;;;;5087606;28;45330;-80
2023/12/27 06:23:44;;;;;;;;;5.00;5.00;;;;;;;;5080263;28;45311;-79
2023/12/27 06:26:10;;;;;;;;;4.67;4.00;;;;;;;;5082226;28;47148;-80
2023/12/27 06:28:35;;;;;;;;;6.33;6.33;;;;;;;;5080643;28;45335;-79
2023/12/27 06:31:00;;;;;;;;;5.33;5.33;;;;;;;;5081043;28;45465;-79
2023/12/27 06:33:25;;;;;;;;;5.00;5.00;;;;;;;;5061898;28;46387;-79
2023/12/27 06:35:51;;;;;;;;;4.33;4.33;;;;;;;;5081672;28;46217;-79
2023/12/27 06:38:16;;;;;;;;;7.00;5.33;;;;;;;;5081549;28;45342;-79
2023/12/27 06:40:41;;;;;;;;;8.00;6.33;;;;;;;;5063050;28;45383;-79
2023/12/27 06:43:07;;;;;;;;;4.00;4.00;;;;;;;;5080350;28;45580;-78
2023/12/27 06:45:32;;;;;;;;;5.33;4.33;;;;;;;;5080905;28;45320;-79
2023/12/27 06:47:57;;;;;;;;;5.00;5.00;;;;;;;;5080706;28;45251;-79
2023/12/27 06:50:22;;;;;;;;;3.67;3.67;;;;;;;;5080811;28;45486;-79
2023/12/27 06:52:49;;;;;;;;;6.00;5.00;;;;;;;;5062320;28;45566;-79
2023/12/27 06:55:14;;;;;;;;;5.00;4.00;;;;;;;;5080595;28;45325;-79
2023/12/27 06:57:39;;;;;;;;;5.67;5.67;;;;;;;;5079997;27;45447;-79
2023/12/27 07:00:06;;;;;;;;;6.00;4.33;;;;;;;;5080457;27;45278;-79
2023/12/27 07:02:31;;;;;;;;;5.00;5.00;;;;;;;;5080220;27;45241;-80
2023/12/27 07:04:56;;;;;;;;;5.33;4.67;;;;;;;;5080394;28;46322;-80
2023/12/27 07:07:21;;;;;;;;;6.00;6.00;;;;;;;;5078781;28;45426;-80
2023/12/27 07:09:46;;;;;;;;;5.00;4.00;;;;;;;;5080577;28;45218;-79
2023/12/27 07:12:12;;;;;;;;;4.00;4.00;;;;;;;;5080364;28;45220;-80
2023/12/27 07:14:38;;;;;;;;;3.67;3.67;;;;;;;;5079924;28;45933;-81
2023/12/27 07:17:04;;;;;;;;;5.33;5.33;;;;;;;;5078353;28;45315;-80
2023/12/27 07:19:29;;;;;;;;;6.00;6.00;;;;;;;;5081524;27;45179;-80
2023/12/27 07:21:54;;;;;;;;;8.00;6.00;;;;;;;;5061239;28;45303;-81
2023/12/27 07:24:22;;;;;;;;;3.67;3.33;;;;;;;;5079927;28;45478;-80
2023/12/27 07:26:47;;;;;;;;;6.00;4.00;;;;;;;;5079851;28;45562;-80
2023/12/27 07:29:12;;;;;;;;;4.00;4.00;;;;;;;;5079946;28;45398;-81
2023/12/27 07:31:37;;;;;;;;;5.33;4.33;;;;;;;;5078472;28;46265;-80
2023/12/27 07:34:03;;;;;;;;;5.67;4.00;;;;;;;;5079802;28;45581;-81
2023/12/27 07:36:28;;;;;;;;;5.00;4.67;;;;;;;;5080037;28;45390;-81
2023/12/27 07:38:53;;;;;;;;;3.00;3.00;;;;;;;;5079950;28;45514;-82
2023/12/27 07:41:18;;;;;;;;;7.67;6.00;;;;;;;;5079893;28;45310;-80
2023/12/27 07:43:44;;;;;;;;;7.33;7.00;;;;;;;;5079707;28;45409;-76
2023/12/27 07:46:09;;;;;;;;;8.00;7.00;;;;;;;;5078054;28;45388;-76
2023/12/27 07:48:34;;;;;;;;;4.67;4.67;;;;;;;;5078806;28;45365;-76
2023/12/27 07:50:59;;;;;;;;;7.00;6.00;;;;;;;;5079619;28;45375;-76
2023/12/27 07:53:25;;;;;;;;;8.67;8.33;;;;;;;;5079669;28;46175;-77
2023/12/27 07:55:50;;;;;;;;;7.67;7.00;;;;;;;;5079324;28;45405;-76
2023/12/27 07:58:15;;;;;;;;;8.67;8.33;;;;;;;;5073204;28;45330;-76
2023/12/27 08:00:40;;;;;;;;;6.67;6.67;;;;;;;;5082068;28;45475;-76
2023/12/27 08:03:08;;;;;;;;;6.00;5.33;;;;;;;;5082927;28;45302;-76
2023/12/27 08:05:33;;;;;;;;;5.67;5.33;;;;;;;;5082810;28;45234;-76
2023/12/27 08:07:59;;;;;;;;;5.67;4.00;;;;;;;;5083003;28;45295;-76
2023/12/27 08:10:24;;;;;;;;;5.00;5.00;;;;;;;;5082573;28;45235;-77
2023/12/27 08:12:49;;;;;;;;;8.00;8.00;;;;;;;;5064601;28;47342;-77
2023/12/27 08:15:14;;;;;;;;;7.67;7.67;;;;;;;;5089107;27;45248;-78
2023/12/27 08:17:39;;;;;;;;;7.33;7.33;;;;;;;;5102637;27;45571;-77
2023/12/27 08:20:05;;;;;;;;;4.33;4.33;;;;;;;;5088410;27;45957;-76
2023/12/27 08:22:32;;;;;;;;;6.00;5.00;;;;;;;;5061982;28;47111;-76
2023/12/27 08:24:57;;;;;;;;;5.67;5.33;;;;;;;;5060831;27;46553;-76
2023/12/27 08:27:23;;;;;;;;;5.33;5.00;;;;;;;;5080191;27;45475;-76
2023/12/27 08:29:48;;;;;;;;;6.00;6.00;;;;;;;;5080676;28;45411;-77
2023/12/27 08:32:13;;;;;;;;;6.33;5.00;;;;;;;;5082845;27;45544;-77
2023/12/27 08:34:38;;;;;;;;;6.33;6.33;;;;;;;;5081209;28;45463;-77
2023/12/27 08:37:03;;;;;;;;;6.67;5.67;;;;;;;;5081839;28;45390;-77
2023/12/27 08:39:29;;;;;;;;;8.33;7.00;;;;;;;;5081684;28;45426;-77
2023/12/27 08:41:54;;;;;;;;;4.00;3.67;;;;;;;;5078716;28;46507;-77
2023/12/27 08:44:19;;;;;;;;;8.00;7.33;;;;;;;;5079468;28;45379;-77
2023/12/27 08:46:44;;;;;;;;;8.00;8.00;;;;;;;;5081240;28;45427;-78
2023/12/27 08:49:10;;;;;;;;;7.00;6.00;;;;;;;;5081476;28;45675;-77
2023/12/27 08:51:35;;;;;;;;;8.00;6.67;;;;;;;;5081925;28;45561;-77
2023/12/27 08:54:00;;;;;;;;;7.67;7.67;;;;;;;;5080372;28;45394;-77
2023/12/27 08:56:25;;;;;;;;;7.00;7.00;;;;;;;;5081309;28;45354;-77
2023/12/27 08:58:50;;;;;;;;;5.00;4.00;;;;;;;;5081167;28;45603;-77
2023/12/27 09:01:16;;;;;;;;;5.33;4.00;;;;;;;;5081454;28;45444;-76
2023/12/27 09:03:41;;;;;;;;;7.33;7.33;;;;;;;;5081001;28;45319;-77
2023/12/27 09:06:07;;;;;;;;;7.00;5.33;;;;;;;;5079698;28;45338;-76
2023/12/27 09:08:35;;;;;;;;;7.00;4.33;;;;;;;;5079799;28;45300;-77
2023/12/27 09:11:00;;;;;;;;;7.00;6.00;;;;;;;;5079021;28;47368;-77
2023/12/27 09:13:25;;;;;;;;;6.00;5.00;;;;;;;;5060203;28;46358;-77
2023/12/27 09:15:50;;;;;;;;;6.00;6.00;;;;;;;;5080253;28;45670;-77
2023/12/27 09:18:15;;;;;;;;;6.00;6.00;;;;;;;;5080856;28;45380;-77
2023/12/27 09:20:41;;;;;;;;;4.00;3.00;;;;;;;;5078867;28;46791;-77
2023/12/27 09:23:07;;;;;;;;;7.33;5.00;;;;;;;;5080399;28;45498;-76
2023/12/27 09:25:32;;;;;;;;;6.00;6.00;;;;;;;;5062772;28;45374;-77
2023/12/27 09:27:57;;;;;;;;;7.00;7.00;;;;;;;;5062323;28;46205;-76
2023/12/27 09:30:22;;;;;;;;;6.33;6.33;;;;;;;;5080216;28;46046;-76
2023/12/27 09:32:48;;;;;;;;;9.33;6.33;;;;;;;;5081416;28;45311;-77
2023/12/27 09:35:13;;;;;;;;;8.67;7.33;;;;;;;;5080448;28;45303;-77
2023/12/27 09:37:38;;;;;;;;;13.00;11.00;;;;;;;;5077623;28;47216;-78
2023/12/27 09:40:04;;;;;;;;;7.00;7.00;;;;;;;;5078544;28;47059;-76
2023/12/27 09:42:32;;;;;;;;;11.67;9.00;;;;;;;;5081311;28;45303;-78
2023/12/27 09:44:59;;;;;;;;;10.33;9.00;;;;;;;;5080997;28;45331;-79
2023/12/27 09:47:25;;;;;;;;;6.00;6.00;;;;;;;;5080484;28;45298;-77
2023/12/27 09:49:54;;;;;;;;;10.33;8.67;;;;;;;;5081052;28;45447;-80
2023/12/27 09:52:19;;;;;;;;;11.67;9.67;;;;;;;;5080940;28;45320;-78
2023/12/27 09:54:44;;;;;;;;;8.33;8.33;;;;;;;;5081356;28;45751;-78
2023/12/27 09:57:10;;;;;;;;;12.33;11.33;;;;;;;;5080913;27;45516;-77
2023/12/27 09:59:39;;;;;;;;;10.33;7.67;;;;;;;;5079482;28;47121;-77
2023/12/27 10:02:09;;;;;;;;;9.33;9.00;;;;;;;;5096545;27;45399;-77
2023/12/27 10:04:38;;;;;;;;;8.00;8.00;;;;;;;;5080776;27;45356;-77
2023/12/27 10:07:04;;;;;;;;;9.00;7.33;;;;;;;;5080917;28;45342;-76
2023/12/27 10:09:29;;;;;;;;;9.67;9.67;;;;;;;;5080823;28;45621;-76
2023/12/27 10:11:55;;;;;;;;;10.33;7.67;;;;;;;;5080354;28;45347;-76
2023/12/27 10:14:21;;;;;;;;;9.33;7.67;;;;;;;;5080312;28;45870;-77
2023/12/27 10:16:46;;;;;;;;;7.00;7.00;;;;;;;;5079125;28;45579;-76
2023/12/27 10:19:31;;;;;;;;;6.33;6.33;;;;;;;;5062216;28;47242;-75
2023/12/27 10:21:57;;;;;;;;;4.00;4.00;;;;;;;;5064897;28;45349;-76
2023/12/27 10:24:22;;;;;;;;;5.33;5.33;;;;;;;;5079748;28;46422;-77
2023/12/27 10:26:47;;;;;;;;;7.00;6.00;;;;;;;;5078124;28;47097;-76
2023/12/27 10:29:14;;;;;;;;;7.33;7.00;;;;;;;;5079636;28;45334;-76
2023/12/27 10:31:40;;;;;;;;;4.67;4.67;;;;;;;;5079734;28;45455;-76
2023/12/27 10:34:07;;;;;;;;;6.00;6.00;;;;;;;;5080089;28;45397;-76
2023/12/27 10:36:33;;;;;;;;;7.00;6.00;;;;;;;;5079900;28;45846;-76
2023/12/27 10:39:02;;;;;;;;;5.67;5.67;;;;;;;;5079660;28;45276;-76
2023/12/27 10:41:27;;;;;;;;;6.00;6.00;;;;;;;;5079731;28;45480;-76
2023/12/27 10:43:53;;;;;;;;;7.33;6.00;;;;;;;;5079894;28;45441;-77
2023/12/27 10:46:18;;;;;;;;;8.00;8.00;;;;;;;;5079710;28;45309;-76
2023/12/27 10:48:48;;;;;;;;;6.00;5.00;;;;;;;;5079062;28;46305;-75
2023/12/27 10:51:13;;;;;;;;;7.00;5.33;;;;;;;;5079881;28;45346;-78
2023/12/27 10:53:43;;;;;;;;;5.33;5.33;;;;;;;;5078989;28;45457;-77
2023/12/27 10:56:08;;;;;;;;;7.67;5.67;;;;;;;;5079933;28;45538;-77
2023/12/27 10:58:34;;;;;;;;;5.33;5.33;;;;;;;;5093175;27;46388;-77
2023/12/27 11:00:59;;;;;;;;;7.00;6.00;;;;;;;;5080040;27;45264;-77
2023/12/27 11:03:25;;;;;;;;;7.00;7.00;;;;;;;;5080018;27;45332;-76
2023/12/27 11:05:51;;;;;;;;;1.33;1.00;;;;;;;;5080017;28;45247;-76
2023/12/27 11:08:17;;;;;;;;;8.33;8.33;;;;;;;;5095422;27;47278;-76
2023/12/27 11:10:44;;;;;;;;;3.00;3.00;;;;;;;;5079756;27;45488;-78
2023/12/27 11:13:11;;;;;;;;;5.00;5.00;;;;;;;;5080125;28;45272;-76
2023/12/27 11:15:44;;;;;;;;;6.00;6.00;;;;;;;;5079672;28;45410;-78
2023/12/27 11:18:10;;;;;;;;;5.00;4.67;;;;;;;;5079535;28;45339;-76
2023/12/27 11:20:36;;;;;;;;;5.00;5.00;;;;;;;;5079885;28;45390;-77
2023/12/27 11:23:02;;;;;;;;;5.67;5.00;;;;;;;;5061709;28;45383;-78
2023/12/27 11:25:27;;;;;;;;;4.33;4.33;;;;;;;;5079733;28;45429;-77
2023/12/27 11:27:52;;;;;;;;;4.67;4.33;;;;;;;;5079034;28;45479;-76
2023/12/27 11:30:21;;;;;;;;;3.67;3.67;;;;;;;;5079592;28;45378;-79
2023/12/27 11:32:46;;;;;;;;;7.00;5.67;;;;;;;;5078431;28;45283;-76
2023/12/27 11:35:32;;;;;;;;;5.67;5.67;;;;;;;;5079560;28;45905;-76
2023/12/27 11:38:21;;;;;;;;;6.00;5.50;;;;;;;;5079671;28;46286;-76
2023/12/27 11:40:47;;;;;;;;;4.67;4.67;;;;;;;;5079666;28;45363;-76
2023/12/27 11:43:19;;;;;;;;;5.00;5.00;;;;;;;;5078480;28;45308;-76
2023/12/27 11:45:57;;;;;;;;;6.00;4.33;;;;;;;;5079309;28;45176;-77
2023/12/27 11:48:23;;;;;;;;;6.33;5.00;;;;;;;;5056046;28;46287;-76
2023/12/27 11:50:49;;;;;;;;;4.00;4.00;;;;;;;;5077842;28;45419;-77
2023/12/27 11:53:14;;;;;;;;;5.00;4.33;;;;;;;;5079277;28;45387;-76
2023/12/27 11:55:41;;;;;;;;;5.00;5.00;;;;;;;;5078822;28;45465;-76
2023/12/27 11:58:06;;;;;;;;;5.33;5.33;;;;;;;;5078884;28;45313;-77
2023/12/27 12:00:31;;;;;;;;;6.67;6.67;;;;;;;;5080610;27;45446;-77
2023/12/27 12:02:58;;;;;;;;;6.00;6.00;;;;;;;;5078922;28;45366;-78
2023/12/27 12:05:35;;;;;;;;;7.00;7.00;;;;;;;;5076801;28;45880;-77
2023/12/27 12:08:15;;;;;;;;;7.67;7.33;;;;;;;;5078556;28;46072;-77
2023/12/27 12:10:40;;;;;;;;;5.67;5.67;;;;;;;;5078347;28;45568;-77
2023/12/27 12:13:05;;;;;;;;;6.33;6.00;;;;;;;;5078643;28;45477;-77
2023/12/27 12:15:31;;;;;;;;;7.00;5.67;;;;;;;;5060122;28;46069;-76
2023/12/27 12:17:56;;;;;;;;;4.00;4.00;;;;;;;;5077993;28;46377;-76
2023/12/27 12:20:21;;;;;;;;;6.67;6.67;;;;;;;;5058327;28;45335;-75
2023/12/27 12:22:48;;;;;;;;;4.33;4.33;;;;;;;;5078307;28;45383;-75
2023/12/27 12:25:14;;;;;;;;;6.00;6.00;;;;;;;;5068940;28;45532;-75
2023/12/27 12:27:42;;;;;;;;;6.00;6.00;;;;;;;;5076712;28;45503;-76
2023/12/27 12:30:07;;;;;;;;;4.33;4.33;;;;;;;;5076778;28;45965;-74
2023/12/27 12:32:37;;;;;;;;;8.00;8.00;;;;;;;;5059951;28;45402;-75
2023/12/27 12:35:03;;;;;;;;;13.00;9.00;;;;;;;;5077662;28;45298;-76
2023/12/27 12:37:29;;;;;;;;;9.67;9.00;;;;;;;;5078370;28;45370;-75
2023/12/27 12:39:54;;;;;;;;;5.67;5.67;;;;;;;;5077854;28;45159;-76
2023/12/27 12:42:20;;;;;;;;;7.67;7.67;;;;;;;;5078528;28;45362;-76
2023/12/27 12:44:46;;;;;;;;;7.00;6.67;;;;;;;;5078436;28;45299;-76
2023/12/27 12:47:11;;;;;;;;;6.00;6.00;;;;;;;;5080348;28;48225;-76
2023/12/27 12:49:37;;;;;;;;;5.00;5.00;;;;;;;;5081554;28;45444;-75
2023/12/27 12:52:06;;;;;;;;;8.00;7.67;;;;;;;;5059213;28;45334;-76
2023/12/27 12:54:32;;;;;;;;;7.67;7.00;;;;;;;;5079952;28;45323;-76
2023/12/27 12:57:00;;;;;;;;;7.33;6.67;;;;;;;;5081380;28;46091;-76
2023/12/27 12:59:27;;;;;;;;;6.00;6.00;;;;;;;;5081152;28;45441;-75
2023/12/27 13:01:52;;;;;;;;;4.67;4.00;;;;;;;;5081518;28;45350;-76
2023/12/27 13:04:17;;;;;;;;;6.67;6.33;;;;;;;;5079780;28;47344;-75
2023/12/27 13:06:42;;;;;;;;;4.00;4.00;;;;;;;;5080182;28;47426;-76
2023/12/27 13:09:08;;;;;;;;;5.67;5.67;;;;;;;;5079516;28;45424;-76
2023/12/27 13:11:34;;;;;;;;;4.33;4.33;;;;;;;;5078544;28;45727;-76
2023/12/27 13:14:00;;;;;;;;;4.00;4.00;;;;;;;;5080169;28;45320;-76
2023/12/27 13:16:25;;;;;;;;;4.00;4.00;;;;;;;;5080390;28;46421;-76
2023/12/27 13:18:52;;;;;;;;;3.33;3.33;;;;;;;;5078269;28;45276;-76
2023/12/27 13:21:17;;;;;;;;;5.00;4.33;;;;;;;;5081064;28;45326;-75
2023/12/27 13:23:43;;;;;;;;;6.67;5.33;;;;;;;;5061777;28;47220;-76
2023/12/27 13:26:08;;;;;;;;;4.33;4.33;;;;;;;;5077715;28;45320;-76
2023/12/27 13:28:33;;;;;;;;;6.00;6.00;;;;;;;;5080539;28;45484;-76
2023/12/27 13:31:02;;;;;;;;;5.67;5.67;;;;;;;;5080854;28;45398;-75
2023/12/27 13:33:27;;;;;;;;;4.33;4.33;;;;;;;;5080492;28;45522;-75
2023/12/27 13:35:53;;;;;;;;;4.67;4.67;;;;;;;;5080675;28;46308;-75
2023/12/27 13:38:18;;;;;;;;;4.00;4.00;;;;;;;;5080392;28;45454;-77
2023/12/27 13:40:43;;;;;;;;;6.33;5.67;;;;;;;;5080943;28;45884;-76
2023/12/27 13:43:09;;;;;;;;;6.00;5.67;;;;;;;;5080320;28;45605;-76
2023/12/27 13:45:34;;;;;;;;;4.00;4.00;;;;;;;;5080575;28;45557;-76
2023/12/27 13:48:00;;;;;;;;;6.67;6.33;;;;;;;;5079221;28;45520;-75
2023/12/27 13:50:25;;;;;;;;;5.33;5.33;;;;;;;;5080676;28;45459;-76
2023/12/27 13:52:50;;;;;;;;;5.00;5.00;;;;;;;;5080691;28;45378;-77
2023/12/27 13:55:20;;;;;;;;;3.33;3.33;;;;;;;;5080399;28;45536;-75
2023/12/27 13:57:46;;;;;;;;;5.33;5.33;;;;;;;;5079371;28;45290;-76
2023/12/27 14:00:11;;;;;;;;;3.67;3.67;;;;;;;;5081136;27;45368;-74
2023/12/27 14:02:37;;;;;;;;;5.00;5.00;;;;;;;;5080646;28;45480;-75
2023/12/27 14:05:02;;;;;;;;;5.33;5.33;;;;;;;;5080836;28;45943;-75
2023/12/27 14:07:27;;;;;;;;;3.33;3.33;;;;;;;;5096758;27;45374;-75
2023/12/27 14:09:52;;;;;;;;;8.67;7.67;;;;;;;;5081131;28;45256;-75
2023/12/27 14:12:17;;;;;;;;;7.00;7.00;;;;;;;;5080503;28;45690;-75
2023/12/27 14:14:43;;;;;;;;;6.33;6.33;;;;;;;;5080769;28;45449;-75
2023/12/27 14:17:08;;;;;;;;;5.00;5.00;;;;;;;;5079068;27;45405;-75
2023/12/27 14:19:34;;;;;;;;;5.67;4.00;;;;;;;;5095016;27;45418;-75
2023/12/27 14:21:59;;;;;;;;;6.00;6.00;;;;;;;;5095778;27;46127;-75
2023/12/27 14:24:24;;;;;;;;;5.67;5.33;;;;;;;;5080286;28;46130;-75
2023/12/27 14:26:49;;;;;;;;;5.67;5.67;;;;;;;;5080262;27;45352;-75
2023/12/27 14:29:14;;;;;;;;;7.00;7.00;;;;;;;;5080370;28;45401;-75
2023/12/27 14:31:40;;;;;;;;;7.67;5.67;;;;;;;;5080527;28;45319;-75